KFDY

Findlay Airport

Findlay, Ohio, USA
KFDY 210534Z 2106/2206 VRB03KT P6SM SCT040 TEMPO 2109/2112 3SM BR FM211500 09010KT P6SM BKN060 FM212300 07010KT P6SM VCSH BKN025 OVC035 FM220300 07010KT P6SM VCSH BKN015 OVC025
Issued Valid From Valid To
Jun-21 @ 05:34 UTC
(5 hours ago)
Jun-21 @ 06:00 UTC
(4 hours ago)
Jun-22 @ 06:00 UTC
(in 20 hours)
Jun-21 @ 06:00 to Jun-21 @ 15:00
KFDY 210534Z 2106/2206 VRB03KT P6SM SCT040
Wind Visibility Clouds
Variable at 3 knots Greater than 6 miles
  • Scattered at 4,000' AGL
Temporary Jun-21 @ 09:00 to Jun-21 @ 12:00
TEMPO 2109/2112 3SM BR
Visibility Conditions
3 miles
  • Mist
From Jun-21 @ 15:00 to Jun-21 @ 23:00
FM211500 09010KT P6SM BKN060
Wind Visibility Clouds
90° at 10 knots Greater than 6 miles
  • Broken at 6,000' AGL
From Jun-21 @ 23:00 to Jun-22 @ 03:00
FM212300 07010KT P6SM VCSH BKN025 OVC035
Wind Visibility Clouds
70° at 10 knots Greater than 6 miles
  • Broken at 2,500' AGL
  • Overcast at 3,500' AGL
From Jun-22 @ 03:00 to Jun-22 @ 06:00
FM220300 07010KT P6SM VCSH BKN015 OVC025
Wind Visibility Clouds
70° at 10 knots Greater than 6 miles
  • Broken at 1,500' AGL
  • Overcast at 2,500' AGL
KFDY 210534Z 2106/2206 VRB03KT P6SM SCT040 TEMPO 2109/2112 3SM BR FM211500 09010KT P6SM BKN060 FM212300 07010KT P6SM VCSH BKN025 OVC035 FM220300 07010KT P6SM VCSH BKN015 OVC025
Issued Jun-21 @ 05:34 UTC
(5 hours ago)
Valid From Jun-21 @ 06:00 UTC
(4 hours ago)
Valid To Jun-22 @ 06:00 UTC
(in 20 hours)
Jun-21 @ 06:00 - Jun-21 @ 15:00
Wind Visibility
Variable at 3 knots Greater than 6 miles
Clouds
  • Scattered at 4,000' AGL
Temporary Jun-21 @ 09:00 - Jun-21 @ 12:00
Conditions
  • Mist
From Jun-21 @ 15:00 - Jun-21 @ 23:00
Wind Visibility
90° at 10 knots Greater than 6 miles
Clouds
  • Broken at 6,000' AGL
From Jun-21 @ 23:00 - Jun-22 @ 03:00
Wind Visibility
70° at 10 knots Greater than 6 miles
Clouds
  • Broken at 2,500' AGL
  • Overcast at 3,500' AGL
From Jun-22 @ 03:00 - Jun-22 @ 06:00
Wind Visibility
70° at 10 knots Greater than 6 miles
Clouds
  • Broken at 1,500' AGL
  • Overcast at 2,500' AGL